sensor_id;sensor_type;location;lat;lon;timestamp;temperature;humidity
871;DHT22;422;51.280;7.236;2023-03-03T00:00:47;0.70;15.70
871;DHT22;422;51.280;7.236;2023-03-03T00:03:17;0.60;26.50
871;DHT22;422;51.280;7.236;2023-03-03T00:05:45;0.60;53.80
871;DHT22;422;51.280;7.236;2023-03-03T00:08:12;0.60;93.70
871;DHT22;422;51.280;7.236;2023-03-03T00:10:40;0.60;99.90
871;DHT22;422;51.280;7.236;2023-03-03T00:13:14;0.60;99.90
871;DHT22;422;51.280;7.236;2023-03-03T00:15:49;0.60;99.90
871;DHT22;422;51.280;7.236;2023-03-03T00:18:21;0.60;99.90
871;DHT22;422;51.280;7.236;2023-03-03T00:20:53;0.60;99.90
871;DHT22;422;51.280;7.236;2023-03-03T00:23:27;0.60;99.90
871;DHT22;422;51.280;7.236;2023-03-03T00:25:56;0.70;99.90
871;DHT22;422;51.280;7.236;2023-03-03T00:28:28;0.70;99.90
871;DHT22;422;51.280;7.236;2023-03-03T00:30:56;0.70;99.90
871;DHT22;422;51.280;7.236;2023-03-03T00:33:27;0.60;99.90
871;DHT22;422;51.280;7.236;2023-03-03T00:35:58;0.50;99.90
871;DHT22;422;51.280;7.236;2023-03-03T00:38:34;0.50;99.90
871;DHT22;422;51.280;7.236;2023-03-03T00:41:03;0.50;99.90
871;DHT22;422;51.280;7.236;2023-03-03T00:43:38;0.50;99.90
871;DHT22;422;51.280;7.236;2023-03-03T00:46:07;0.40;99.90
871;DHT22;422;51.280;7.236;2023-03-03T00:48:41;0.50;99.90
871;DHT22;422;51.280;7.236;2023-03-03T00:51:23;0.60;99.90
871;DHT22;422;51.280;7.236;2023-03-03T00:53:51;0.50;99.90
871;DHT22;422;51.280;7.236;2023-03-03T00:56:19;0.50;99.90
871;DHT22;422;51.280;7.236;2023-03-03T00:58:47;0.50;99.90
871;DHT22;422;51.280;7.236;2023-03-03T01:01:15;0.50;99.90
871;DHT22;422;51.280;7.236;2023-03-03T01:03:43;0.50;99.90
871;DHT22;422;51.280;7.236;2023-03-03T01:06:11;0.50;99.90
871;DHT22;422;51.280;7.236;2023-03-03T01:08:39;0.50;99.90
871;DHT22;422;51.280;7.236;2023-03-03T01:11:08;0.50;99.90
871;DHT22;422;51.280;7.236;2023-03-03T01:13:39;0.50;99.90
871;DHT22;422;51.280;7.236;2023-03-03T01:16:09;0.40;99.90
871;DHT22;422;51.280;7.236;2023-03-03T01:18:36;0.50;99.90
871;DHT22;422;51.280;7.236;2023-03-03T01:21:05;0.50;99.90
871;DHT22;422;51.280;7.236;2023-03-03T01:23:32;0.50;99.90
871;DHT22;422;51.280;7.236;2023-03-03T01:25:59;0.40;99.90
871;DHT22;422;51.280;7.236;2023-03-03T01:28:27;0.40;99.90
871;DHT22;422;51.280;7.236;2023-03-03T01:30:54;0.30;99.90
871;DHT22;422;51.280;7.236;2023-03-03T01:33:27;0.30;99.90
871;DHT22;422;51.280;7.236;2023-03-03T01:35:54;0.20;99.90
871;DHT22;422;51.280;7.236;2023-03-03T01:38:21;0.20;99.90
871;DHT22;422;51.280;7.236;2023-03-03T01:40:52;0.20;99.90
871;DHT22;422;51.280;7.236;2023-03-03T01:43:20;0.20;99.90
871;DHT22;422;51.280;7.236;2023-03-03T01:49:06;0.20;99.90
871;DHT22;422;51.280;7.236;2023-03-03T01:51:39;0.20;99.90
871;DHT22;422;51.280;7.236;2023-03-03T01:54:13;0.20;99.90
871;DHT22;422;51.280;7.236;2023-03-03T01:56:43;0.20;99.90
871;DHT22;422;51.280;7.236;2023-03-03T01:59:14;0.10;99.90
871;DHT22;422;51.280;7.236;2023-03-03T02:01:42;0.00;99.90
871;DHT22;422;51.280;7.236;2023-03-03T02:04:11;-0.10;99.90
871;DHT22;422;51.280;7.236;2023-03-03T02:06:42;0.00;99.90
871;DHT22;422;51.280;7.236;2023-03-03T02:09:13;0.00;99.90
871;DHT22;422;51.280;7.236;2023-03-03T02:11:44;0.00;99.90
871;DHT22;422;51.280;7.236;2023-03-03T02:14:12;0.10;99.90
871;DHT22;422;51.280;7.236;2023-03-03T02:16:40;0.10;99.90
871;DHT22;422;51.280;7.236;2023-03-03T02:19:15;0.00;99.90
871;DHT22;422;51.280;7.236;2023-03-03T02:21:45;0.10;99.90
871;DHT22;422;51.280;7.236;2023-03-03T02:24:17;0.10;99.90
871;DHT22;422;51.280;7.236;2023-03-03T02:26:48;0.10;99.90
871;DHT22;422;51.280;7.236;2023-03-03T02:29:16;0.10;99.90
871;DHT22;422;51.280;7.236;2023-03-03T02:31:43;0.10;99.90
871;DHT22;422;51.280;7.236;2023-03-03T02:34:10;0.20;99.90
871;DHT22;422;51.280;7.236;2023-03-03T02:36:38;0.20;99.90
871;DHT22;422;51.280;7.236;2023-03-03T02:39:08;0.20;99.90
871;DHT22;422;51.280;7.236;2023-03-03T02:41:39;0.20;99.90
871;DHT22;422;51.280;7.236;2023-03-03T02:44:11;0.30;99.90
871;DHT22;422;51.280;7.236;2023-03-03T02:46:40;0.30;99.90
871;DHT22;422;51.280;7.236;2023-03-03T02:49:10;0.30;99.90
871;DHT22;422;51.280;7.236;2023-03-03T02:51:38;0.40;99.90
871;DHT22;422;51.280;7.236;2023-03-03T02:54:06;0.40;99.90
871;DHT22;422;51.280;7.236;2023-03-03T02:56:34;0.40;99.90
871;DHT22;422;51.280;7.236;2023-03-03T02:59:01;0.40;99.90
871;DHT22;422;51.280;7.236;2023-03-03T03:01:30;0.40;99.90
871;DHT22;422;51.280;7.236;2023-03-03T03:04:02;0.40;99.90
871;DHT22;422;51.280;7.236;2023-03-03T03:06:31;0.30;99.90
871;DHT22;422;51.280;7.236;2023-03-03T03:08:58;0.30;99.90
871;DHT22;422;51.280;7.236;2023-03-03T03:11:26;0.30;99.90
871;DHT22;422;51.280;7.236;2023-03-03T03:13:53;0.30;99.90
871;DHT22;422;51.280;7.236;2023-03-03T03:16:20;0.20;99.90
871;DHT22;422;51.280;7.236;2023-03-03T03:18:48;0.30;99.90
871;DHT22;422;51.280;7.236;2023-03-03T03:21:16;0.20;99.90
871;DHT22;422;51.280;7.236;2023-03-03T03:23:44;0.20;99.90
871;DHT22;422;51.280;7.236;2023-03-03T03:26:11;0.10;99.90
871;DHT22;422;51.280;7.236;2023-03-03T03:28:38;0.20;99.90
871;DHT22;422;51.280;7.236;2023-03-03T03:31:09;0.20;99.90
871;DHT22;422;51.280;7.236;2023-03-03T03:33:37;0.30;99.90
871;DHT22;422;51.280;7.236;2023-03-03T03:36:06;0.30;99.90
871;DHT22;422;51.280;7.236;2023-03-03T03:38:34;0.30;99.90
871;DHT22;422;51.280;7.236;2023-03-03T03:41:02;0.30;99.90
871;DHT22;422;51.280;7.236;2023-03-03T03:43:30;0.20;99.90
871;DHT22;422;51.280;7.236;2023-03-03T03:45:58;0.20;99.90
871;DHT22;422;51.280;7.236;2023-03-03T03:48:26;0.20;99.90
871;DHT22;422;51.280;7.236;2023-03-03T03:50:53;0.20;99.90
871;DHT22;422;51.280;7.236;2023-03-03T03:53:22;0.10;99.90
871;DHT22;422;51.280;7.236;2023-03-03T03:55:49;0.20;99.90
871;DHT22;422;51.280;7.236;2023-03-03T03:58:17;0.20;99.90
871;DHT22;422;51.280;7.236;2023-03-03T04:00:45;0.20;99.90
871;DHT22;422;51.280;7.236;2023-03-03T04:03:13;0.20;99.90
871;DHT22;422;51.280;7.236;2023-03-03T04:05:40;0.10;99.90
871;DHT22;422;51.280;7.236;2023-03-03T04:08:08;0.10;99.90
871;DHT22;422;51.280;7.236;2023-03-03T04:10:36;0.10;99.90
871;DHT22;422;51.280;7.236;2023-03-03T04:13:03;0.20;99.90
871;DHT22;422;51.280;7.236;2023-03-03T04:15:32;0.20;99.90
871;DHT22;422;51.280;7.236;2023-03-03T04:18:00;0.20;99.90
871;DHT22;422;51.280;7.236;2023-03-03T04:20:27;0.20;99.90
871;DHT22;422;51.280;7.236;2023-03-03T04:22:54;0.20;99.90
871;DHT22;422;51.280;7.236;2023-03-03T04:25:22;0.10;99.90
871;DHT22;422;51.280;7.236;2023-03-03T04:27:51;0.10;99.90
871;DHT22;422;51.280;7.236;2023-03-03T04:30:19;0.10;99.90
871;DHT22;422;51.280;7.236;2023-03-03T04:32:46;0.20;99.90
871;DHT22;422;51.280;7.236;2023-03-03T04:35:14;0.10;99.90
871;DHT22;422;51.280;7.236;2023-03-03T04:37:41;0.10;99.90
871;DHT22;422;51.280;7.236;2023-03-03T04:40:09;0.00;99.90
871;DHT22;422;51.280;7.236;2023-03-03T04:42:37;0.00;99.90
871;DHT22;422;51.280;7.236;2023-03-03T04:45:07;0.00;99.90
871;DHT22;422;51.280;7.236;2023-03-03T04:47:34;0.00;99.90
871;DHT22;422;51.280;7.236;2023-03-03T04:50:01;0.00;99.90
871;DHT22;422;51.280;7.236;2023-03-03T04:52:28;-0.10;99.90
871;DHT22;422;51.280;7.236;2023-03-03T04:54:56;0.00;99.90
871;DHT22;422;51.280;7.236;2023-03-03T04:57:23;-0.10;99.90
871;DHT22;422;51.280;7.236;2023-03-03T04:59:50;0.00;99.90
871;DHT22;422;51.280;7.236;2023-03-03T05:02:18;0.10;99.90
871;DHT22;422;51.280;7.236;2023-03-03T05:04:46;0.00;99.90
871;DHT22;422;51.280;7.236;2023-03-03T05:07:13;0.00;99.90
871;DHT22;422;51.280;7.236;2023-03-03T05:09:40;0.10;99.90
871;DHT22;422;51.280;7.236;2023-03-03T05:12:07;0.00;99.90
871;DHT22;422;51.280;7.236;2023-03-03T05:14:34;0.10;99.90
871;DHT22;422;51.280;7.236;2023-03-03T05:17:02;0.10;99.90
871;DHT22;422;51.280;7.236;2023-03-03T05:19:32;0.10;99.90
871;DHT22;422;51.280;7.236;2023-03-03T05:21:59;0.00;99.90
871;DHT22;422;51.280;7.236;2023-03-03T05:24:27;0.10;99.90
871;DHT22;422;51.280;7.236;2023-03-03T05:26:54;0.10;99.90
871;DHT22;422;51.280;7.236;2023-03-03T05:29:21;0.10;99.90
871;DHT22;422;51.280;7.236;2023-03-03T05:31:49;0.10;99.90
871;DHT22;422;51.280;7.236;2023-03-03T05:34:16;0.10;99.90
871;DHT22;422;51.280;7.236;2023-03-03T05:36:44;0.20;99.90
871;DHT22;422;51.280;7.236;2023-03-03T05:39:12;0.00;99.90
871;DHT22;422;51.280;7.236;2023-03-03T05:41:40;0.10;99.90
871;DHT22;422;51.280;7.236;2023-03-03T05:44:07;0.10;99.90
871;DHT22;422;51.280;7.236;2023-03-03T05:46:35;0.10;99.90
871;DHT22;422;51.280;7.236;2023-03-03T05:49:02;0.10;99.90
871;DHT22;422;51.280;7.236;2023-03-03T05:51:29;0.00;99.90
871;DHT22;422;51.280;7.236;2023-03-03T05:53:58;0.00;99.90
871;DHT22;422;51.280;7.236;2023-03-03T05:56:26;0.00;99.90
871;DHT22;422;51.280;7.236;2023-03-03T05:58:53;0.00;99.90
871;DHT22;422;51.280;7.236;2023-03-03T06:01:20;0.00;99.90
871;DHT22;422;51.280;7.236;2023-03-03T06:03:47;0.00;99.90
871;DHT22;422;51.280;7.236;2023-03-03T06:06:15;0.00;99.90
871;DHT22;422;51.280;7.236;2023-03-03T06:08:43;-0.10;99.90
871;DHT22;422;51.280;7.236;2023-03-03T06:11:12;0.00;99.90
871;DHT22;422;51.280;7.236;2023-03-03T06:13:41;0.10;99.90
871;DHT22;422;51.280;7.236;2023-03-03T06:16:08;0.10;99.90
871;DHT22;422;51.280;7.236;2023-03-03T06:18:35;0.10;99.90
871;DHT22;422;51.280;7.236;2023-03-03T06:21:03;0.00;99.90
871;DHT22;422;51.280;7.236;2023-03-03T06:23:30;0.10;99.90
871;DHT22;422;51.280;7.236;2023-03-03T06:25:57;0.00;99.90
871;DHT22;422;51.280;7.236;2023-03-03T06:28:26;0.00;99.90
871;DHT22;422;51.280;7.236;2023-03-03T06:30:53;0.10;99.90
871;DHT22;422;51.280;7.236;2023-03-03T06:33:21;0.10;99.90
871;DHT22;422;51.280;7.236;2023-03-03T06:35:49;0.10;99.90
871;DHT22;422;51.280;7.236;2023-03-03T06:38:16;0.10;99.90
871;DHT22;422;51.280;7.236;2023-03-03T06:40:44;0.10;99.90
871;DHT22;422;51.280;7.236;2023-03-03T06:43:12;0.10;99.90
871;DHT22;422;51.280;7.236;2023-03-03T06:45:41;0.20;99.90
871;DHT22;422;51.280;7.236;2023-03-03T06:48:09;0.30;99.90
871;DHT22;422;51.280;7.236;2023-03-03T06:50:36;0.10;99.90
871;DHT22;422;51.280;7.236;2023-03-03T06:53:09;0.10;99.90
871;DHT22;422;51.280;7.236;2023-03-03T06:55:38;0.30;99.90
871;DHT22;422;51.280;7.236;2023-03-03T06:58:11;0.20;99.90
871;DHT22;422;51.280;7.236;2023-03-03T07:00:41;0.20;99.90
871;DHT22;422;51.280;7.236;2023-03-03T07:03:14;0.20;99.90
871;DHT22;422;51.280;7.236;2023-03-03T07:05:42;0.30;99.90
871;DHT22;422;51.280;7.236;2023-03-03T07:08:13;0.40;99.90
871;DHT22;422;51.280;7.236;2023-03-03T07:10:41;0.40;99.90
871;DHT22;422;51.280;7.236;2023-03-03T07:13:18;0.30;99.90
871;DHT22;422;51.280;7.236;2023-03-03T07:15:47;0.40;99.90
871;DHT22;422;51.280;7.236;2023-03-03T07:18:39;0.40;99.90
871;DHT22;422;51.280;7.236;2023-03-03T07:21:16;0.50;99.90
871;DHT22;422;51.280;7.236;2023-03-03T07:23:45;0.50;99.90
871;DHT22;422;51.280;7.236;2023-03-03T07:26:13;0.50;99.90
871;DHT22;422;51.280;7.236;2023-03-03T07:28:42;0.40;99.90
871;DHT22;422;51.280;7.236;2023-03-03T07:31:29;0.60;99.90
871;DHT22;422;51.280;7.236;2023-03-03T07:33:59;0.70;99.90
871;DHT22;422;51.280;7.236;2023-03-03T07:36:29;0.70;99.90
871;DHT22;422;51.280;7.236;2023-03-03T07:38:58;0.70;99.90
871;DHT22;422;51.280;7.236;2023-03-03T07:41:27;0.80;99.90
871;DHT22;422;51.280;7.236;2023-03-03T07:43:56;0.90;99.90
871;DHT22;422;51.280;7.236;2023-03-03T07:46:35;0.90;99.90
871;DHT22;422;51.280;7.236;2023-03-03T07:49:22;0.80;99.90
871;DHT22;422;51.280;7.236;2023-03-03T07:51:53;0.60;99.90
871;DHT22;422;51.280;7.236;2023-03-03T07:54:29;0.70;99.90
871;DHT22;422;51.280;7.236;2023-03-03T07:57:04;0.70;99.90
871;DHT22;422;51.280;7.236;2023-03-03T07:59:38;0.70;99.90
871;DHT22;422;51.280;7.236;2023-03-03T08:05:33;0.70;99.90
871;DHT22;422;51.280;7.236;2023-03-03T08:08:22;0.70;99.90
871;DHT22;422;51.280;7.236;2023-03-03T08:10:55;0.70;99.90
871;DHT22;422;51.280;7.236;2023-03-03T08:13:25;0.60;99.90
871;DHT22;422;51.280;7.236;2023-03-03T08:15:58;0.60;99.90
871;DHT22;422;51.280;7.236;2023-03-03T08:18:33;0.70;99.90
871;DHT22;422;51.280;7.236;2023-03-03T08:21:02;0.80;99.90
871;DHT22;422;51.280;7.236;2023-03-03T08:23:29;0.80;99.90
871;DHT22;422;51.280;7.236;2023-03-03T08:25:58;0.90;99.90
871;DHT22;422;51.280;7.236;2023-03-03T08:28:25;1.00;99.90
871;DHT22;422;51.280;7.236;2023-03-03T08:30:52;1.10;99.90
871;DHT22;422;51.280;7.236;2023-03-03T08:33:19;1.10;38.20
871;DHT22;422;51.280;7.236;2023-03-03T08:35:48;1.10;1.00
871;DHT22;422;51.280;7.236;2023-03-03T08:38:17;1.10;1.00
871;DHT22;422;51.280;7.236;2023-03-03T08:40:45;1.10;1.00
871;DHT22;422;51.280;7.236;2023-03-03T08:43:12;1.20;1.00
871;DHT22;422;51.280;7.236;2023-03-03T08:45:42;1.30;99.90
871;DHT22;422;51.280;7.236;2023-03-03T08:48:10;1.30;99.90
871;DHT22;422;51.280;7.236;2023-03-03T08:50:47;0.90;99.90
871;DHT22;422;51.280;7.236;2023-03-03T08:53:15;0.90;1.00
871;DHT22;422;51.280;7.236;2023-03-03T08:55:42;0.90;1.00
871;DHT22;422;51.280;7.236;2023-03-03T08:58:10;0.70;1.00
871;DHT22;422;51.280;7.236;2023-03-03T09:00:37;0.80;1.00
871;DHT22;422;51.280;7.236;2023-03-03T09:03:04;0.90;73.80
871;DHT22;422;51.280;7.236;2023-03-03T09:05:33;1.10;1.00
871;DHT22;422;51.280;7.236;2023-03-03T09:08:03;1.00;1.00
871;DHT22;422;51.280;7.236;2023-03-03T09:10:31;1.20;1.00
871;DHT22;422;51.280;7.236;2023-03-03T09:13:02;1.30;99.90
871;DHT22;422;51.280;7.236;2023-03-03T09:15:32;1.30;39.40
871;DHT22;422;51.280;7.236;2023-03-03T09:18:05;1.40;99.90
871;DHT22;422;51.280;7.236;2023-03-03T09:20:37;1.40;1.00
871;DHT22;422;51.280;7.236;2023-03-03T09:23:29;1.40;99.90
871;DHT22;422;51.280;7.236;2023-03-03T09:25:58;1.40;99.90
871;DHT22;422;51.280;7.236;2023-03-03T09:28:35;1.40;99.90
871;DHT22;422;51.280;7.236;2023-03-03T09:31:05;1.50;99.90
871;DHT22;422;51.280;7.236;2023-03-03T09:33:43;1.60;99.90
871;DHT22;422;51.280;7.236;2023-03-03T09:36:25;1.50;99.90
871;DHT22;422;51.280;7.236;2023-03-03T09:38:55;1.40;99.90
871;DHT22;422;51.280;7.236;2023-03-03T09:41:46;1.30;99.90
871;DHT22;422;51.280;7.236;2023-03-03T09:44:40;1.50;99.90
871;DHT22;422;51.280;7.236;2023-03-03T09:47:29;1.70;99.90
871;DHT22;422;51.280;7.236;2023-03-03T09:50:06;1.60;99.90
871;DHT22;422;51.280;7.236;2023-03-03T09:52:41;1.70;99.90
871;DHT22;422;51.280;7.236;2023-03-03T09:55:32;1.60;95.60
871;DHT22;422;51.280;7.236;2023-03-03T09:58:14;1.70;99.90
871;DHT22;422;51.280;7.236;2023-03-03T10:00:53;1.70;91.20
871;DHT22;422;51.280;7.236;2023-03-03T10:03:39;1.70;53.20
871;DHT22;422;51.280;7.236;2023-03-03T10:06:16;1.90;77.60
871;DHT22;422;51.280;7.236;2023-03-03T10:08:55;2.10;47.50
871;DHT22;422;51.280;7.236;2023-03-03T10:11:30;2.10;1.00
871;DHT22;422;51.280;7.236;2023-03-03T10:14:19;2.10;1.00
871;DHT22;422;51.280;7.236;2023-03-03T10:19:54;2.10;1.00
871;DHT22;422;51.280;7.236;2023-03-03T10:22:34;2.10;1.00
871;DHT22;422;51.280;7.236;2023-03-03T10:25:18;1.90;1.00
871;DHT22;422;51.280;7.236;2023-03-03T10:28:00;2.20;1.00
871;DHT22;422;51.280;7.236;2023-03-03T10:30:39;2.30;1.00
871;DHT22;422;51.280;7.236;2023-03-03T10:33:13;2.30;1.00
871;DHT22;422;51.280;7.236;2023-03-03T10:36:00;2.50;1.00
871;DHT22;422;51.280;7.236;2023-03-03T10:38:45;2.60;1.00
871;DHT22;422;51.280;7.236;2023-03-03T10:41:27;2.70;1.00
871;DHT22;422;51.280;7.236;2023-03-03T10:47:06;2.50;1.00
871;DHT22;422;51.280;7.236;2023-03-03T10:49:50;2.50;1.00
871;DHT22;422;51.280;7.236;2023-03-03T10:52:30;2.20;1.00
871;DHT22;422;51.280;7.236;2023-03-03T11:00:57;2.20;1.00
871;DHT22;422;51.280;7.236;2023-03-03T11:06:39;2.60;1.00
871;DHT22;422;51.280;7.236;2023-03-03T11:09:19;3.00;1.00
871;DHT22;422;51.280;7.236;2023-03-03T11:11:52;3.10;1.00
871;DHT22;422;51.280;7.236;2023-03-03T11:14:30;3.40;1.00
871;DHT22;422;51.280;7.236;2023-03-03T11:17:07;3.40;1.00
871;DHT22;422;51.280;7.236;2023-03-03T11:19:59;3.20;1.00
871;DHT22;422;51.280;7.236;2023-03-03T11:22:37;2.80;1.00
871;DHT22;422;51.280;7.236;2023-03-03T11:25:15;2.80;1.00
871;DHT22;422;51.280;7.236;2023-03-03T11:28:04;3.20;1.00
871;DHT22;422;51.280;7.236;2023-03-03T11:30:46;3.60;1.00
871;DHT22;422;51.280;7.236;2023-03-03T11:33:21;3.80;1.00
871;DHT22;422;51.280;7.236;2023-03-03T11:35:52;4.00;1.00
871;DHT22;422;51.280;7.236;2023-03-03T11:38:44;4.10;1.00
871;DHT22;422;51.280;7.236;2023-03-03T11:41:19;4.20;1.00
871;DHT22;422;51.280;7.236;2023-03-03T11:43:52;3.50;1.00
871;DHT22;422;51.280;7.236;2023-03-03T11:46:25;3.40;1.00
871;DHT22;422;51.280;7.236;2023-03-03T11:48:59;3.10;1.00
871;DHT22;422;51.280;7.236;2023-03-03T11:51:35;3.20;1.00
871;DHT22;422;51.280;7.236;2023-03-03T11:54:13;3.30;1.00
871;DHT22;422;51.280;7.236;2023-03-03T11:56:42;3.40;1.00
871;DHT22;422;51.280;7.236;2023-03-03T11:59:34;3.60;1.00
871;DHT22;422;51.280;7.236;2023-03-03T12:02:16;3.80;1.00
871;DHT22;422;51.280;7.236;2023-03-03T12:04:53;4.00;1.00
871;DHT22;422;51.280;7.236;2023-03-03T12:07:29;4.40;1.00
871;DHT22;422;51.280;7.236;2023-03-03T12:10:11;4.60;1.00
871;DHT22;422;51.280;7.236;2023-03-03T12:12:42;4.80;99.90
871;DHT22;422;51.280;7.236;2023-03-03T12:15:22;4.40;99.90
871;DHT22;422;51.280;7.236;2023-03-03T12:18:03;4.50;99.90
871;DHT22;422;51.280;7.236;2023-03-03T12:20:41;4.60;99.90
871;DHT22;422;51.280;7.236;2023-03-03T12:23:22;4.40;99.90
871;DHT22;422;51.280;7.236;2023-03-03T12:25:59;4.60;99.90
871;DHT22;422;51.280;7.236;2023-03-03T12:28:30;4.60;99.90
871;DHT22;422;51.280;7.236;2023-03-03T12:31:15;4.50;99.90
871;DHT22;422;51.280;7.236;2023-03-03T12:33:52;4.60;99.90
871;DHT22;422;51.280;7.236;2023-03-03T12:36:36;4.50;99.90
871;DHT22;422;51.280;7.236;2023-03-03T12:39:08;4.60;99.90
871;DHT22;422;51.280;7.236;2023-03-03T12:41:43;4.60;99.90
871;DHT22;422;51.280;7.236;2023-03-03T12:44:17;4.30;99.90
871;DHT22;422;51.280;7.236;2023-03-03T12:46:55;4.60;99.90
871;DHT22;422;51.280;7.236;2023-03-03T12:49:29;4.80;99.90
871;DHT22;422;51.280;7.236;2023-03-03T12:52:08;5.00;99.90
871;DHT22;422;51.280;7.236;2023-03-03T12:54:57;5.10;99.90
871;DHT22;422;51.280;7.236;2023-03-03T12:57:33;5.30;99.90
871;DHT22;422;51.280;7.236;2023-03-03T13:00:15;5.40;99.90
871;DHT22;422;51.280;7.236;2023-03-03T13:02:56;5.50;99.90
871;DHT22;422;51.280;7.236;2023-03-03T13:05:29;5.70;99.90
871;DHT22;422;51.280;7.236;2023-03-03T13:08:24;5.40;99.90
871;DHT22;422;51.280;7.236;2023-03-03T13:11:00;5.50;99.90
871;DHT22;422;51.280;7.236;2023-03-03T13:13:36;5.60;99.90
871;DHT22;422;51.280;7.236;2023-03-03T13:16:11;5.40;99.90
871;DHT22;422;51.280;7.236;2023-03-03T13:18:48;5.40;99.90
871;DHT22;422;51.280;7.236;2023-03-03T13:21:22;5.20;99.90
871;DHT22;422;51.280;7.236;2023-03-03T13:23:56;5.20;99.90
871;DHT22;422;51.280;7.236;2023-03-03T13:26:29;5.10;99.90
871;DHT22;422;51.280;7.236;2023-03-03T13:29:07;4.70;99.90
871;DHT22;422;51.280;7.236;2023-03-03T13:31:38;5.00;99.90
871;DHT22;422;51.280;7.236;2023-03-03T13:34:07;5.20;99.90
871;DHT22;422;51.280;7.236;2023-03-03T13:36:41;5.40;99.90
871;DHT22;422;51.280;7.236;2023-03-03T13:39:18;5.60;99.90
871;DHT22;422;51.280;7.236;2023-03-03T13:41:50;5.60;99.90
871;DHT22;422;51.280;7.236;2023-03-03T13:44:24;5.60;99.90
871;DHT22;422;51.280;7.236;2023-03-03T13:47:02;5.50;99.90
871;DHT22;422;51.280;7.236;2023-03-03T13:49:40;5.10;99.90
871;DHT22;422;51.280;7.236;2023-03-03T13:52:11;4.50;99.90
871;DHT22;422;51.280;7.236;2023-03-03T13:54:50;4.40;99.90
871;DHT22;422;51.280;7.236;2023-03-03T14:00:28;4.70;99.90
871;DHT22;422;51.280;7.236;2023-03-03T14:03:12;5.00;99.90
871;DHT22;422;51.280;7.236;2023-03-03T14:05:44;5.20;99.90
871;DHT22;422;51.280;7.236;2023-03-03T14:08:23;5.20;99.90
871;DHT22;422;51.280;7.236;2023-03-03T14:11:04;5.40;99.90
871;DHT22;422;51.280;7.236;2023-03-03T14:13:41;5.90;99.90
871;DHT22;422;51.280;7.236;2023-03-03T14:16:13;5.90;99.90
871;DHT22;422;51.280;7.236;2023-03-03T14:18:52;5.50;99.90
871;DHT22;422;51.280;7.236;2023-03-03T14:21:25;5.10;99.90
871;DHT22;422;51.280;7.236;2023-03-03T14:23:57;5.30;99.90
871;DHT22;422;51.280;7.236;2023-03-03T14:26:26;5.80;99.90
871;DHT22;422;51.280;7.236;2023-03-03T14:29:10;6.10;99.90
871;DHT22;422;51.280;7.236;2023-03-03T14:31:42;6.20;99.90
871;DHT22;422;51.280;7.236;2023-03-03T14:34:27;6.10;99.90
871;DHT22;422;51.280;7.236;2023-03-03T14:36:59;5.70;99.90
871;DHT22;422;51.280;7.236;2023-03-03T14:39:35;5.30;99.90
871;DHT22;422;51.280;7.236;2023-03-03T14:42:11;5.60;99.90
871;DHT22;422;51.280;7.236;2023-03-03T14:44:52;5.90;99.90
871;DHT22;422;51.280;7.236;2023-03-03T14:47:21;5.50;99.90
871;DHT22;422;51.280;7.236;2023-03-03T14:49:50;5.50;99.90
871;DHT22;422;51.280;7.236;2023-03-03T14:52:23;5.50;99.90
871;DHT22;422;51.280;7.236;2023-03-03T14:54:52;5.30;99.90
871;DHT22;422;51.280;7.236;2023-03-03T14:57:22;5.30;99.90
871;DHT22;422;51.280;7.236;2023-03-03T15:00:25;5.00;99.90
871;DHT22;422;51.280;7.236;2023-03-03T15:03:01;5.00;99.90
871;DHT22;422;51.280;7.236;2023-03-03T15:05:30;4.90;99.90
871;DHT22;422;51.280;7.236;2023-03-03T15:08:06;5.00;99.90
871;DHT22;422;51.280;7.236;2023-03-03T15:10:35;4.70;99.90
871;DHT22;422;51.280;7.236;2023-03-03T15:13:34;4.50;99.90
871;DHT22;422;51.280;7.236;2023-03-03T15:16:07;4.20;99.90
871;DHT22;422;51.280;7.236;2023-03-03T15:19:05;4.30;99.90
871;DHT22;422;51.280;7.236;2023-03-03T15:21:36;4.30;99.90
871;DHT22;422;51.280;7.236;2023-03-03T15:24:10;4.20;99.90
871;DHT22;422;51.280;7.236;2023-03-03T15:26:46;4.20;99.90
871;DHT22;422;51.280;7.236;2023-03-03T15:29:22;4.10;99.90
871;DHT22;422;51.280;7.236;2023-03-03T15:31:56;4.10;99.90
871;DHT22;422;51.280;7.236;2023-03-03T15:34:35;4.00;99.90
871;DHT22;422;51.280;7.236;2023-03-03T15:37:08;4.00;99.90
871;DHT22;422;51.280;7.236;2023-03-03T15:39:44;4.00;99.90
871;DHT22;422;51.280;7.236;2023-03-03T15:42:14;4.10;99.90
871;DHT22;422;51.280;7.236;2023-03-03T15:44:55;4.20;99.90
871;DHT22;422;51.280;7.236;2023-03-03T15:47:46;4.30;99.90
871;DHT22;422;51.280;7.236;2023-03-03T15:50:34;4.50;99.90
871;DHT22;422;51.280;7.236;2023-03-03T15:53:17;4.40;99.90
871;DHT22;422;51.280;7.236;2023-03-03T15:55:58;4.40;99.90
871;DHT22;422;51.280;7.236;2023-03-03T15:58:52;4.50;99.90
871;DHT22;422;51.280;7.236;2023-03-03T16:01:28;4.50;99.90
871;DHT22;422;51.280;7.236;2023-03-03T16:04:00;4.60;99.90
871;DHT22;422;51.280;7.236;2023-03-03T16:06:40;4.70;99.90
871;DHT22;422;51.280;7.236;2023-03-03T16:09:18;4.70;99.90
871;DHT22;422;51.280;7.236;2023-03-03T16:11:50;4.60;99.90
871;DHT22;422;51.280;7.236;2023-03-03T16:14:37;4.50;99.90
871;DHT22;422;51.280;7.236;2023-03-03T16:17:17;4.70;99.90
871;DHT22;422;51.280;7.236;2023-03-03T16:19:50;4.50;99.90
871;DHT22;422;51.280;7.236;2023-03-03T16:22:32;4.30;99.90
871;DHT22;422;51.280;7.236;2023-03-03T16:25:23;4.10;99.90
871;DHT22;422;51.280;7.236;2023-03-03T16:27:59;4.00;99.90
871;DHT22;422;51.280;7.236;2023-03-03T16:30:32;3.90;99.90
871;DHT22;422;51.280;7.236;2023-03-03T16:33:18;3.90;99.90
871;DHT22;422;51.280;7.236;2023-03-03T16:35:52;3.90;99.90
871;DHT22;422;51.280;7.236;2023-03-03T16:38:23;3.80;99.90
871;DHT22;422;51.280;7.236;2023-03-03T16:40:56;3.70;99.90
871;DHT22;422;51.280;7.236;2023-03-03T16:43:30;3.60;99.90
871;DHT22;422;51.280;7.236;2023-03-03T16:46:03;3.60;99.90
871;DHT22;422;51.280;7.236;2023-03-03T16:48:42;3.60;99.90
871;DHT22;422;51.280;7.236;2023-03-03T16:54:08;3.60;99.90
871;DHT22;422;51.280;7.236;2023-03-03T16:56:42;3.50;99.90
871;DHT22;422;51.280;7.236;2023-03-03T16:59:24;3.40;99.90
871;DHT22;422;51.280;7.236;2023-03-03T17:02:00;3.30;99.90
871;DHT22;422;51.280;7.236;2023-03-03T17:04:37;3.20;1.00
871;DHT22;422;51.280;7.236;2023-03-03T17:07:18;3.10;1.00
871;DHT22;422;51.280;7.236;2023-03-03T17:13:02;3.00;1.00
871;DHT22;422;51.280;7.236;2023-03-03T17:15:38;2.90;1.00
871;DHT22;422;51.280;7.236;2023-03-03T17:18:12;2.80;1.00
871;DHT22;422;51.280;7.236;2023-03-03T17:20:46;2.70;1.00
871;DHT22;422;51.280;7.236;2023-03-03T17:23:41;2.60;1.00
871;DHT22;422;51.280;7.236;2023-03-03T17:26:22;2.50;1.00
871;DHT22;422;51.280;7.236;2023-03-03T17:28:59;2.40;1.00
871;DHT22;422;51.280;7.236;2023-03-03T17:31:36;2.40;1.00
871;DHT22;422;51.280;7.236;2023-03-03T17:34:14;2.30;1.00
871;DHT22;422;51.280;7.236;2023-03-03T17:36:54;2.20;1.00
871;DHT22;422;51.280;7.236;2023-03-03T17:39:46;2.10;1.00
871;DHT22;422;51.280;7.236;2023-03-03T17:42:20;2.00;1.00
871;DHT22;422;51.280;7.236;2023-03-03T17:44:58;1.90;1.00
871;DHT22;422;51.280;7.236;2023-03-03T17:47:45;1.80;1.00
871;DHT22;422;51.280;7.236;2023-03-03T17:50:27;1.80;1.00
871;DHT22;422;51.280;7.236;2023-03-03T17:55:57;1.60;1.00
871;DHT22;422;51.280;7.236;2023-03-03T17:58:46;1.50;1.00
871;DHT22;422;51.280;7.236;2023-03-03T18:01:24;1.50;1.00
871;DHT22;422;51.280;7.236;2023-03-03T18:07:03;1.30;1.00
871;DHT22;422;51.280;7.236;2023-03-03T18:09:55;1.20;1.00
871;DHT22;422;51.280;7.236;2023-03-03T18:12:34;1.10;1.00